Latest Weather Observations for Shepparton

IDV60801

Issued at 9:31 am EST Saturday 1 August 2015 (issued every 30 minutes, with the page automatically refreshed every 10 minutes)

About weather observations | Map of weather stations | Latest weather observations for VIC | Other Formats
Station Details ID: 081125 Name: SHEPPARTON AIRPORT Lat: -36.43 Lon: 145.39 Height: 113.9 m
Data from the previous 72 hours. | See also: Recent months at Shepparton
Date/Time
EST
Temp
°C
App
Temp
°C
Dew
Point
Rel
Hum
%
Delta-T
°C
Wind Press
QNH
hPa
Press
MSL
hPa
Rain
since 9 am
mm
Dir
 
Spd
km/h
Gust
km/h
Spd
kts
Gust
kts
01/09:30am 11.5 8.3 11.3 99 0.1 NW 19 24 10 13 1013.2 1013.4 0.2
01/09:23am 11.6 8.8 11.4 99 0.1 NW 17 24 9 13 1013.2 1013.4 0.2
01/09:20am 11.6 8.4 11.4 99 0.1 NW 19 28 10 15 1013.3 1013.5 0.2
01/09:00am 11.6 7.5 11.4 99 0.1 NW 24 41 13 22 1013.0 1013.2 3.2
01/08:47am 11.2 8.0 11.2 100 0.0 NW 19 28 10 15 1012.9 1013.1 3.0
01/08:46am 11.2 8.0 11.2 100 0.0 NW 19 28 10 15 1012.9 1013.1 3.0
01/08:33am 10.4 8.4 10.2 99 0.1 NNW 11 17 6 9 1012.8 1013.0 2.8
01/08:30am 10.2 8.5 10.0 99 0.1 NNW 9 17 5 9 1012.8 1013.0 2.8
01/08:22am 9.8 8.1 9.7 99 0.1 N 9 11 5 6 1012.8 1013.0 2.4
01/08:00am 9.3 7.4 9.2 99 0.0 N 9 13 5 7 1012.6 1012.8 2.0
01/07:30am 9.0 7.0 8.5 97 0.2 NNE 9 13 5 7 1012.7 1012.9 1.2
01/07:00am 8.8 6.2 7.7 93 0.5 NNE 11 15 6 8 1012.6 1012.8 0.2
01/06:30am 8.4 5.6 7.0 91 0.7 NNE 11 15 6 8 1012.7 1012.9 0.0
01/06:00am 8.1 4.9 6.7 91 0.7 N 13 19 7 10 1012.5 1012.7 0.0
01/05:30am 7.9 3.5 6.4 90 0.7 N 19 26 10 14 1012.8 1013.0 0.0
01/05:00am 7.9 3.8 6.0 88 0.9 NNE 17 24 9 13 1013.0 1013.2 0.0
01/04:30am 7.6 2.8 5.6 87 0.9 NNE 20 32 11 17 1013.0 1013.2 0.0
01/04:00am 7.5 2.3 5.3 86 1.0 NNE 22 32 12 17 1013.0 1013.2 0.0
01/03:30am 7.5 2.8 5.3 86 1.0 NNE 19 24 10 13 1013.8 1014.0 0.0
01/03:00am 7.3 2.6 5.1 86 1.0 NNE 19 24 10 13 1014.6 1014.8 0.0
01/02:30am 7.1 2.3 4.9 86 1.0 NNE 19 24 10 13 1015.2 1015.4 0.0
01/02:00am 7.2 2.4 4.9 85 1.0 NE 19 24 10 13 1015.7 1015.9 0.0
01/01:30am 7.3 3.3 4.8 84 1.1 NE 15 22 8 12 1016.4 1016.7 0.0
01/01:00am 7.1 2.6 4.4 83 1.2 NE 17 22 9 12 1016.7 1017.0 0.0
01/12:30am 6.9 2.7 3.9 81 1.3 NE 15 19 8 10 1017.5 1017.8 0.0
01/12:00am 7.0 3.2 3.8 80 1.4 NE 13 20 7 11 1017.8 1018.1 0.0
 
Date/Time
EST
Temp
°C
App
Temp
°C
Dew
Point
Rel
Hum
%
Delta-T
°C
Wind Press
QNH
hPa
Press
MSL
hPa
Rain
since 9 am
mm
Dir
 
Spd
km/h
Gust
km/h
Spd
kts
Gust
kts
31/11:30pm 7.1 2.5 3.5 78 1.5 NNE 17 22 9 12 1018.1 1018.4 0.0
31/11:00pm 6.9 2.6 3.5 79 1.4 NNE 15 20 8 11 1018.1 1018.4 0.0
31/10:30pm 6.8 3.7 3.6 80 1.4 NNE 9 15 5 8 1018.4 1018.7 0.0
31/10:00pm 6.7 2.9 3.7 81 1.3 NNE 13 19 7 10 1018.6 1018.9 0.0
31/09:30pm 6.5 2.6 3.5 81 1.3 NNE 13 15 7 8 1019.3 1019.5 0.0
31/09:00pm 6.5 3.4 3.5 81 1.3 NE 9 13 5 7 1019.3 1019.5 0.0
31/08:30pm 6.5 3.4 3.7 82 1.2 NNE 9 11 5 6 1019.4 1019.6 0.0
31/08:00pm 6.7 3.3 4.0 83 1.2 NNE 11 15 6 8 1019.3 1019.5 0.0
31/07:30pm 6.9 3.9 4.0 82 1.3 N 9 13 5 7 1019.7 1019.9 0.0
31/07:00pm 6.9 3.9 4.0 82 1.2 NNE 9 13 5 7 1019.1 1019.4 0.0
31/06:30pm 7.9 4.9 4.1 77 1.7 ENE 9 11 5 6 1018.3 1018.6 0.0
31/06:00pm 8.7 5.6 3.7 71 2.2 NE 9 11 5 6 1018.3 1018.6 0.0
31/05:30pm 9.5 5.6 3.5 66 2.6 NNE 13 17 7 9 1018.2 1018.5 0.0
31/05:00pm 10.9 7.1 4.1 63 3.0 NNE 13 20 7 11 1018.2 1018.5 0.0
31/04:30pm 11.5 7.3 4.0 60 3.4 NNE 15 22 8 12 1018.4 1018.7 0.0
31/04:00pm 11.9 7.7 3.7 57 3.7 NNE 15 22 8 12 1018.5 1018.8 0.0
31/03:30pm 12.1 7.5 3.9 57 3.7 NNE 17 24 9 13 1018.7 1019.0 0.0
31/03:00pm 12.2 7.8 2.6 52 4.2 NNE 15 20 8 11 1018.8 1019.1 0.0
31/02:30pm 12.2 7.8 2.9 53 4.1 N 15 20 8 11 1018.9 1019.2 0.0
31/02:00pm 12.3 9.5 1.9 49 4.5 NE 6 15 3 8 1019.4 1019.6 0.0
31/01:30pm 12.2 10.1 1.8 49 4.5 NNW 2 7 1 4 1020.0 1020.2 0.0
31/01:00pm 12.0 9.3 2.5 52 4.1 N 6 11 3 6 1020.2 1020.4 0.0
31/12:30pm 11.4 8.6 2.9 56 3.7 NE 7 11 4 6 1020.7 1020.9 0.0
31/12:00pm 10.5 8.7 3.3 61 3.1 SW 2 7 1 4 1021.3 1021.5 0.0
31/11:30am 10.0 7.1 4.4 68 2.5 SSE 9 15 5 8 1021.6 1021.8 0.0
31/11:00am 9.2 6.8 5.4 77 1.7 SSW 7 13 4 7 1022.1 1022.3 0.0
31/10:30am 8.4 5.9 6.7 89 0.8 SSW 9 11 5 6 1022.1 1022.3 0.0
31/10:00am 6.6 4.1 6.5 99 0.0 WSW 9 13 5 7 1022.2 1022.4 0.0
31/09:30am 5.6 2.9 5.5 99 0.0 SW 9 13 5 7 1021.9 1022.1 0.0
31/09:00am 4.4 1.8 4.3 99 0.0 WSW 7 9 4 5 1021.8 1022.0 1.6
31/08:30am 3.4 1.6 3.3 99 0.0 WSW 2 7 1 4 1021.6 1021.8 1.6
31/08:02am 2.2 -0.6 2.1 99 0.0 WSW 6 9 3 5 1021.3 1021.5 1.6
31/08:00am 2.2 -0.6 2.1 99 0.0 WSW 6 7 3 4 1021.3 1021.5 1.6
31/07:58am 2.1 -0.7 2.0 99 0.0 WSW 6 7 3 4 1021.3 1021.5 1.6
31/07:47am 1.8 -1.1 1.7 99 0.0 WSW 6 7 3 4 1021.2 1021.4 1.6
31/07:30am 1.7 -1.2 1.6 99 0.0 WSW 6 7 3 4 1020.7 1020.9 1.4
31/07:00am 2.6 -0.7 2.5 99 0.0 SW 9 9 5 5 1020.4 1020.6 1.4
31/06:30am 3.3 0.7 3.2 99 0.0 SW 6 7 3 4 1020.0 1020.2 1.4
31/06:00am 4.4 1.4 4.3 99 0.0 SW 9 11 5 6 1019.8 1020.0 1.4
31/05:30am 4.8 2.3 4.7 99 0.0 SW 7 11 4 6 1019.5 1019.7 1.4
31/05:00am 5.1 2.8 5.0 99 0.0 SW 6 9 3 5 1019.3 1019.5 1.4
31/04:30am 5.5 2.8 5.4 99 0.0 SW 9 11 5 6 1018.8 1019.1 1.4
31/04:00am 5.8 3.1 5.7 99 0.0 SW 9 11 5 6 1018.6 1018.9 1.4
31/03:50am 5.9 3.2 5.8 99 0.0 SW 9 13 5 7 1018.5 1018.8 1.4
31/03:33am 6.2 3.2 6.1 99 0.0 WSW 11 15 6 8 1018.5 1018.8 1.4
31/03:30am 6.4 3.5 6.3 99 0.0 WSW 11 15 6 8 1018.6 1018.9 1.4
31/03:13am 5.5 2.8 5.4 99 0.0 SW 9 11 5 6 1018.6 1018.9 1.4
31/03:00am 5.7 3.0 5.6 99 0.0 WSW 9 11 5 6 1018.6 1018.9 1.4
31/02:30am 6.6 5.8 6.5 99 0.0 CALM 0 0 0 0 1018.5 1018.8 1.4
31/02:24am 6.9 6.2 6.8 99 0.0 CALM 0 0 0 0 1018.5 1018.8 1.4
31/02:00am 7.4 6.4 7.3 99 0.0 WNW 2 7 1 4 1018.4 1018.7 1.4
31/01:37am 7.6 7.0 7.3 98 0.1 CALM 0 0 0 0 1018.4 1018.7 1.4
31/01:30am 7.7 7.1 7.4 98 0.1 CALM 0 0 0 0 1018.5 1018.8 1.4
31/01:00am 7.9 6.9 7.5 97 0.2 NW 2 7 1 4 1018.6 1018.9 1.2
31/12:30am 8.2 6.3 7.4 95 0.4 NNW 7 11 4 6 1018.5 1018.8 1.0
31/12:00am 8.1 6.6 7.0 93 0.5 S 4 13 2 7 1018.8 1019.1 0.8
 
Date/Time
EST
Temp
°C
App
Temp
°C
Dew
Point
Rel
Hum
%
Delta-T
°C
Wind Press
QNH
hPa
Press
MSL
hPa
Rain
since 9 am
mm
Dir
 
Spd
km/h
Gust
km/h
Spd
kts
Gust
kts
30/11:30pm 9.0 6.1 6.4 84 1.2 N 11 17 6 9 1018.4 1018.7 0.0
30/11:00pm 9.0 5.7 6.4 84 1.2 NNE 13 19 7 10 1018.4 1018.7 0.0
30/10:30pm 8.8 5.5 6.4 85 1.1 NNE 13 20 7 11 1018.3 1018.6 0.0
30/10:00pm 8.6 5.7 6.6 87 0.9 NNE 11 17 6 9 1018.7 1019.0 0.0
30/09:30pm 8.6 5.7 6.6 87 0.9 NNE 11 15 6 8 1018.7 1019.0 0.0
30/09:00pm 8.7 5.4 6.5 86 1.0 NNE 13 19 7 10 1018.6 1018.9 0.0
30/08:30pm 8.7 5.0 6.5 86 1.0 NNE 15 19 8 10 1018.8 1019.1 0.0
30/08:00pm 8.7 5.8 6.5 86 1.0 N 11 17 6 9 1018.7 1019.0 0.0
30/07:30pm 8.8 5.5 6.4 85 1.1 NNE 13 17 7 9 1018.7 1019.0 0.0
30/07:00pm 9.4 6.0 5.8 78 1.7 NNE 13 19 7 10 1018.9 1019.2 0.0
30/06:30pm 9.5 4.7 5.7 77 1.7 NNE 20 26 11 14 1018.3 1018.6 0.0
30/06:00pm 9.7 4.5 5.5 75 1.9 NNE 22 28 12 15 1018.2 1018.5 0.0
30/05:30pm 9.9 5.3 5.5 74 2.0 NNE 19 26 10 14 1018.3 1018.6 0.0
30/05:00pm 10.1 5.2 5.1 71 2.3 N 20 30 11 16 1018.1 1018.4 0.0
30/04:30pm 10.3 4.7 5.5 72 2.2 N 24 33 13 18 1018.1 1018.4 0.0
30/04:00pm 10.4 4.9 6.0 74 2.0 NNE 24 33 13 18 1018.0 1018.3 0.0
30/03:30pm 10.3 6.1 5.5 72 2.2 N 17 24 9 13 1020.2 1020.4 0.0
30/03:00pm 10.4 4.7 5.0 69 2.5 N 24 35 13 19 1019.4 1019.6 0.0
30/02:30pm 10.7 5.0 4.8 67 2.7 N 24 32 13 17 1019.9 1020.1 0.0
30/02:00pm 11.0 5.8 5.5 69 2.5 N 22 32 12 17 1020.2 1020.4 0.0
30/01:30pm 11.3 6.5 5.4 67 2.7 N 20 30 11 16 1020.7 1020.9 0.0
30/01:00pm 10.8 5.6 5.6 70 2.4 N 22 32 12 17 1021.6 1021.8 0.0
30/12:30pm 10.3 5.8 6.1 75 2.0 N 19 24 10 13 1022.1 1022.3 0.0
30/12:00pm 10.0 4.9 6.2 77 1.8 N 22 32 12 17 1022.8 1023.0 0.0
30/11:30am 10.1 5.7 6.4 78 1.7 N 19 26 10 14 1023.6 1023.9 0.0
30/11:00am 10.1 6.2 7.0 81 1.5 N 17 24 9 13 1023.9 1024.2 0.0
30/10:30am 9.0 5.0 6.6 85 1.1 N 17 24 9 13 1024.2 1024.5 0.0
30/10:00am 8.3 4.3 6.8 90 0.7 N 17 24 9 13 1024.7 1025.0 0.0
30/09:30am 7.0 3.3 6.3 95 0.3 NNE 15 20 8 11 1024.7 1025.0 0.0
30/09:00am 6.0 2.6 5.9 99 0.0 NNE 13 19 7 10 1024.7 1025.0 0.0
30/08:30am 5.2 2.4 5.1 99 0.0 NNE 9 13 5 7 1025.0 1025.3 0.0
30/08:00am 4.9 1.6 4.8 99 0.0 NNE 11 17 6 9 1024.8 1025.1 0.0
30/07:30am 4.4 1.1 4.3 99 0.0 NNE 11 13 6 7 1024.9 1025.2 0.0
30/07:00am 4.4 1.4 4.3 99 0.0 NNE 9 13 5 7 1025.0 1025.3 0.0
30/06:30am 4.7 1.4 4.6 99 0.0 NNE 11 15 6 8 1024.9 1025.2 0.0
30/06:00am 5.1 1.9 5.0 99 0.0 NNE 11 15 6 8 1025.3 1025.6 0.0
30/05:30am 5.4 2.6 5.3 99 0.0 NNE 9 13 5 7 1025.5 1025.8 0.0
30/05:00am 5.2 3.0 5.1 99 0.0 NNE 6 9 3 5 1025.6 1025.9 0.0
30/04:30am 5.0 2.5 4.9 99 0.0 NE 7 9 4 5 1025.7 1026.0 0.0
30/04:00am 4.3 1.8 3.7 96 0.2 NNE 6 7 3 4 1025.9 1026.2 0.0
30/03:30am 5.3 2.4 4.6 95 0.3 NE 9 11 5 6 1025.9 1026.2 0.0
30/03:00am 5.5 3.0 4.5 93 0.4 NNE 7 9 4 5 1026.4 1026.7 0.0
30/02:30am 6.5 3.3 5.3 92 0.5 NNE 11 15 6 8 1026.7 1027.0 0.0
30/02:00am 7.1 4.0 5.6 90 0.7 NNE 11 15 6 8 1027.1 1027.4 0.0
30/01:30am 7.3 5.0 5.8 90 0.7 NNE 7 11 4 6 1027.4 1027.7 0.0
30/01:00am 7.5 4.5 6.0 90 0.7 NNE 11 13 6 7 1027.6 1027.9 0.0
30/12:30am 7.4 4.8 6.0 91 0.6 N 9 13 5 7 1028.2 1028.5 0.0
30/12:00am 7.5 4.9 6.3 92 0.5 NNE 9 11 5 6 1028.6 1028.8 0.0
 
Date/Time
EST
Temp
°C
App
Temp
°C
Dew
Point
Rel
Hum
%
Delta-T
°C
Wind Press
QNH
hPa
Press
MSL
hPa
Rain
since 9 am
mm
Dir
 
Spd
km/h
Gust
km/h
Spd
kts
Gust
kts
29/11:30pm 7.7 5.1 6.2 90 0.7 NNE 9 13 5 7 1028.6 1028.8 0.0
29/11:00pm 8.0 5.1 6.3 89 0.8 NNE 11 15 6 8 1028.9 1029.1 0.0
29/10:30pm 8.4 5.5 6.5 88 0.9 NNE 11 13 6 7 1029.0 1029.2 0.0
29/10:00pm 8.6 5.7 6.6 87 0.9 NNE 11 15 6 8 1029.2 1029.4 0.0
29/09:30pm 8.7 6.3 6.8 88 0.9 NNE 9 11 5 6 1029.5 1029.7 0.0
29/09:00pm 8.7 6.7 7.0 89 0.8 NNE 7 11 4 6 1029.6 1029.8 0.0
29/08:30pm 8.8 6.0 6.9 88 0.9 NE 11 13 6 7 1029.5 1029.7 0.0
29/08:00pm 9.0 6.2 7.0 87 0.9 NNE 11 15 6 8 1029.6 1029.8 0.0
29/07:30pm 9.2 6.4 7.0 86 1.0 NNE 11 17 6 9 1029.6 1029.8 0.0
29/07:00pm 9.3 6.5 6.9 85 1.1 NE 11 15 6 8 1029.4 1029.6 0.0
29/06:30pm 9.5 6.6 6.4 81 1.4 NE 11 17 6 9 1029.5 1029.7 0.0
29/06:00pm 9.8 7.5 5.6 75 1.9 N 7 11 4 6 1029.7 1029.9 0.0
29/05:30pm 10.1 8.0 5.7 74 2.0 NE 6 9 3 5 1029.5 1029.7 0.0
29/05:00pm 10.5 8.1 5.3 70 2.4 NE 7 11 4 6 1029.6 1029.8 0.0
29/04:30pm 10.7 7.9 5.3 69 2.5 NE 9 15 5 8 1029.5 1029.7 0.0
29/04:00pm 10.7 8.0 5.7 71 2.3 NNE 9 13 5 7 1029.8 1030.0 0.0
29/03:30pm 10.7 8.4 5.7 71 2.3 NE 7 13 4 7 1030.0 1030.2 0.0
29/03:00pm 10.6 8.5 6.0 73 2.1 WNW 6 9 3 5 1031.0 1031.3 0.0
29/02:30pm 10.6 7.9 5.8 72 2.2 NNW 9 11 5 6 1031.0 1031.3 0.0
29/02:00pm 10.8 7.0 6.0 72 2.2 N 15 20 8 11 1031.5 1031.8 0.0
29/01:30pm 11.2 7.8 5.9 70 2.5 N 13 19 7 10 1031.4 1031.7 0.0
29/01:00pm 10.3 7.4 6.6 78 1.7 N 11 15 6 8 1031.9 1032.2 0.0
29/12:30pm 8.6 5.9 5.7 82 1.3 N 9 13 5 7 1033.4 1033.7 0.0
29/12:00pm 8.8 5.8 6.1 83 1.2 N 11 15 6 8 1033.7 1034.0 0.0
29/11:30am 7.7 3.8 5.5 86 1.0 N 15 20 8 11 1034.2 1034.5 0.0
29/11:00am 6.7 3.4 6.6 99 0.0 NNE 13 19 7 10 1034.1 1034.4 0.0
29/10:30am 5.8 3.5 5.7 99 0.0 NE 7 13 4 7 1034.9 1035.2 0.0
29/10:21am 5.3 2.5 5.2 99 0.0 NNE 9 13 5 7 1035.1 1035.4 0.0
29/10:00am 4.3 1.3 4.2 99 0.0 NNE 9 13 5 7 1034.8 1035.1 0.0
29/09:59am 4.2 1.2 4.1 99 0.0 NNE 9 13 5 7 1034.8 1035.1 0.0
29/09:39am 3.7 0.6 3.6 99 0.0 NE 9 11 5 6 1034.7 1035.0 0.0

Other Formats:

Comma delimited format used in spreadsheet applications
http://www.bom.gov.au/fwo/IDV60801/IDV60801.94875.axf

JavaScript Object Notation format (JSON) in row-major order
http://www.bom.gov.au/fwo/IDV60801/IDV60801.94875.json